ES2ADF-5 Weather Reports


Display with metric or nautical units.
time (UTC)temp
F
wind
direction
speed
MPH
gust
MPH
rain 1hr
in
rain 24hr
in
rain mn
in
humidity
%
barometer
mb
20260506112659 54 0 0.0 0.0 0.00 0.00 0.00 33 1012.9
20260506112159 55 0 0.0 0.0 0.00 0.00 0.00 34 1013.0
20260506111658 54 0 0.0 0.0 0.00 0.00 0.00 34 1013.0
20260506111158 54 0 0.0 0.0 0.00 0.00 0.00 34 1012.9
20260506110658 54 0 0.0 0.0 0.00 0.00 0.00 36 1012.8
20260506110157 54 0 0.0 0.0 0.00 0.00 0.00 36 1013.0
20260506105657 54 0 0.0 0.0 0.00 0.00 0.00 34 1012.9
20260506105157 54 0 0.0 0.0 0.00 0.00 0.00 36 1013.0
20260506104657 54 0 0.0 0.0 0.00 0.00 0.00 34 1012.9
20260506104156 54 0 0.0 0.0 0.00 0.00 0.00 34 1013.2
20260506103656 54 0 0.0 0.0 0.00 0.00 0.00 36 1013.2
20260506103156 54 0 0.0 0.0 0.00 0.00 0.00 36 1013.2
20260506102655 53 0 0.0 0.0 0.00 0.00 0.00 34 1013.2
20260506102155 54 0 0.0 0.0 0.00 0.00 0.00 34 1013.1
20260506101655 54 0 0.0 0.0 0.00 0.00 0.00 36 1013.2
20260506101155 54 0 0.0 0.0 0.00 0.00 0.00 37 1013.2
20260506100654 54 0 0.0 0.0 0.00 0.00 0.00 38 1013.3
20260506100154 55 0 0.0 0.0 0.00 0.00 0.00 38 1013.2
20260506095654 55 0 0.0 0.0 0.00 0.00 0.00 38 1013.3
20260506095153 55 0 0.0 0.0 0.00 0.00 0.00 38 1013.2
20260506094653 55 0 0.0 0.0 0.00 0.00 0.00 39 1013.0
20260506094153 55 0 0.0 0.0 0.00 0.00 0.00 39 1013.1
20260506093653 55 0 0.0 0.0 0.00 0.00 0.00 40 1013.1
20260506093152 55 0 0.0 0.0 0.00 0.00 0.00 39 1013.0
20260506092652 54 0 0.0 0.0 0.00 0.00 0.00 39 1013.1
20260506092152 54 0 0.0 0.0 0.00 0.00 0.00 39 1012.9
20260506091651 54 0 0.0 0.0 0.00 0.00 0.00 40 1013.0
20260506091151 54 0 0.0 0.0 0.00 0.00 0.00 39 1013.2
20260506090651 54 0 0.0 0.0 0.00 0.00 0.00 39 1013.1
20260506090151 54 0 0.0 0.0 0.00 0.00 0.00 38 1013.1
20260506085650 54 0 0.0 0.0 0.00 0.00 0.00 40 1013.0
20260506085150 54 0 0.0 0.0 0.00 0.00 0.00 40 1013.1
20260506084650 54 0 0.0 0.0 0.00 0.00 0.00 40 1013.0
20260506084149 54 0 0.0 0.0 0.00 0.00 0.00 40 1012.9
20260506083649 54 0 0.0 0.0 0.00 0.00 0.00 41 1012.9
20260506083149 54 0 0.0 0.0 0.00 0.00 0.00 42 1012.8
20260506082649 54 0 0.0 0.0 0.00 0.00 0.00 41 1012.7
20260506082148 54 0 0.0 0.0 0.00 0.00 0.00 41 1012.8
20260506081648 55 0 0.0 0.0 0.00 0.00 0.00 41 1012.9
20260506081148 55 0 0.0 0.0 0.00 0.00 0.00 42 1012.8
20260506080647 54 0 0.0 0.0 0.00 0.00 0.00 42 1012.6
20260506080147 54 0 0.0 0.0 0.00 0.00 0.00 43 1012.5
20260506073145 54 0 0.0 0.0 0.00 0.00 0.00 41 1012.4
20260506072645 55 0 0.0 0.0 0.00 0.00 0.00 40 1012.4
20260506072145 56 0 0.0 0.0 0.00 0.00 0.00 39 1012.3
20260506071644 57 0 0.0 0.0 0.00 0.00 0.00 38 1012.3
20260506071144 59 0 0.0 0.0 0.00 0.00 0.00 37 1011.9
20260506070644 62 0 0.0 0.0 0.00 0.00 0.00 35 1011.9
20260506070144 68 0 0.0 0.0 0.00 0.00 0.00 34 1011.8
20260506062141 69 0 0.0 0.0 0.00 0.00 0.00 36 1011.9
20260506061641 70 0 0.0 0.0 0.00 0.00 0.00 37 1011.9
20260506061141 70 0 0.0 0.0 0.00 0.00 0.00 39 1012.0
20260506060640 69 0 0.0 0.0 0.00 0.00 0.00 39 1011.8
20260506060140 69 0 0.0 0.0 0.00 0.00 0.00 40 1011.7
20260506051137 64 0 0.0 0.0 0.00 0.00 0.00 52 1011.4
20260506050637 62 0 0.0 0.0 0.00 0.00 0.00 53 1011.4
20260506050137 60 0 0.0 0.0 0.00 0.00 0.00 55 1011.5
20260506045136 58 0 0.0 0.0 0.00 0.00 0.00 58 1011.6
20260506044636 56 0 0.0 0.0 0.00 0.00 0.00 61 1011.5
20260506044135 53 0 0.0 0.0 0.00 0.00 0.00 65 1011.4
20260506043635 51 0 0.0 0.0 0.00 0.00 0.00 70 1011.5
20260506043135 46 0 0.0 0.0 0.00 0.00 0.00 78 1011.5
20260506042635 42 0 0.0 0.0 0.00 0.00 0.00 81 1011.5
20260506042134 40 0 0.0 0.0 0.00 0.00 0.00 81 1011.4
20260506041634 37 0 0.0 0.0 0.00 0.00 0.00 82 1011.3
20260506041134 37 0 0.0 0.0 0.00 0.00 0.00 81 1011.4
20260506040633 36 0 0.0 0.0 0.00 0.00 0.00 81 1011.4
20260506040133 36 0 0.0 0.0 0.00 0.00 0.00 82 1011.2
20260506035633 35 0 0.0 0.0 0.00 0.00 0.00 82 1011.3
20260506035133 35 0 0.0 0.0 0.00 0.00 0.00 82 1011.0
20260506034632 34 0 0.0 0.0 0.00 0.00 0.00 83 1011.0
20260506034132 33 0 0.0 0.0 0.00 0.00 0.00 82 1011.0
20260506033632 33 0 0.0 0.0 0.00 0.00 0.00 82 1010.9
20260506033131 32 0 0.0 0.0 0.00 0.00 0.00 82 1011.0
20260506032631 32 0 0.0 0.0 0.00 0.00 0.00 82 1010.8
20260506032131 32 0 0.0 0.0 0.00 0.00 0.00 82 1010.6
20260506031631 32 0 0.0 0.0 0.00 0.00 0.00 81 1010.6
20260506031130 32 0 0.0 0.0 0.00 0.00 0.00 81 1010.5
20260506030630 32 0 0.0 0.0 0.00 0.00 0.00 81 1010.6
20260506030130 32 0 0.0 0.0 0.00 0.00 0.00 82 1010.5
20260506025629 32 0 0.0 0.0 0.00 0.00 0.00 82 1010.4
20260506025129 32 0 0.0 0.0 0.00 0.00 0.00 82 1010.2
20260506024629 32 0 0.0 0.0 0.00 0.00 0.00 82 1010.2
20260506024128 31 0 0.0 0.0 0.00 0.00 0.00 81 1010.1
20260506023628 31 0 0.0 0.0 0.00 0.00 0.00 81 1010.2
20260506023128 31 0 0.0 0.0 0.00 0.00 0.00 81 1010.1
20260506022628 31 0 0.0 0.0 0.00 0.00 0.00 81 1010.2
20260506022127 32 0 0.0 0.0 0.00 0.00 0.00 82 1010.2
20260506021627 32 0 0.0 0.0 0.00 0.00 0.00 82 1010.2
20260506021127 32 0 0.0 0.0 0.00 0.00 0.00 82 1010.1
20260506020626 32 0 0.0 0.0 0.00 0.00 0.00 82 1010.0
20260506020126 32 0 0.0 0.0 0.00 0.00 0.00 81 1010.0
20260506015626 32 0 0.0 0.0 0.00 0.00 0.00 81 1009.9
20260506015126 32 0 0.0 0.0 0.00 0.00 0.00 81 1010.0
20260506014625 32 0 0.0 0.0 0.00 0.00 0.00 81 1009.9
20260506014125 32 0 0.0 0.0 0.00 0.00 0.00 80 1010.0
20260506013625 32 0 0.0 0.0 0.00 0.00 0.00 80 1009.9
20260506013124 32 0 0.0 0.0 0.00 0.00 0.00 80 1009.9
20260506012624 32 0 0.0 0.0 0.00 0.00 0.00 80 1009.8
20260506012124 32 0 0.0 0.0 0.00 0.00 0.00 80 1009.7
20260506011624 33 0 0.0 0.0 0.00 0.00 0.00 81 1009.7
20260506011123 33 0 0.0 0.0 0.00 0.00 0.00 81 1009.7
20260506010623 33 0 0.0 0.0 0.00 0.00 0.00 81 1009.6
20260506010123 33 0 0.0 0.0 0.00 0.00 0.00 80 1009.5
20260506005622 33 0 0.0 0.0 0.00 0.00 0.00 80 1009.4
20260506005122 33 0 0.0 0.0 0.00 0.00 0.00 80 1009.5
20260506004622 33 0 0.0 0.0 0.00 0.00 0.00 80 1009.3
20260506004122 33 0 0.0 0.0 0.00 0.00 0.00 79 1009.3
20260506003621 33 0 0.0 0.0 0.00 0.00 0.00 79 1009.2
20260506003121 33 0 0.0 0.0 0.00 0.00 0.00 79 1009.3
20260506002621 33 0 0.0 0.0 0.00 0.00 0.00 79 1009.2
20260506002120 33 0 0.0 0.0 0.00 0.00 0.00 79 1009.2
20260506001620 33 0 0.0 0.0 0.00 0.00 0.00 79 1009.1
20260506001120 34 0 0.0 0.0 0.00 0.00 0.00 79 1009.1
20260506000619 34 0 0.0 0.0 0.00 0.00 0.00 79 1009.0
20260506000119 34 0 0.0 0.0 0.00 0.00 0.00 79 1009.0
20260505235619 34 0 0.0 0.0 0.00 0.00 0.00 79 1009.0
20260505235119 34 0 0.0 0.0 0.00 0.00 0.00 79 1008.9
20260505234618 34 0 0.0 0.0 0.00 0.00 0.00 78 1008.9
20260505234118 34 0 0.0 0.0 0.00 0.00 0.00 78 1008.9
20260505233618 34 0 0.0 0.0 0.00 0.00 0.00 79 1008.8
20260505233117 34 0 0.0 0.0 0.00 0.00 0.00 78 1008.8
20260505232617 34 0 0.0 0.0 0.00 0.00 0.00 77 1008.8
20260505232117 35 0 0.0 0.0 0.00 0.00 0.00 78 1008.7
20260505231617 35 0 0.0 0.0 0.00 0.00 0.00 78 1008.8
20260505231116 35 0 0.0 0.0 0.00 0.00 0.00 78 1008.8
20260505230616 35 0 0.0 0.0 0.00 0.00 0.00 78 1008.8
20260505230116 35 0 0.0 0.0 0.00 0.00 0.00 78 1008.8
20260505225615 35 0 0.0 0.0 0.00 0.00 0.00 77 1008.7
20260505225115 35 0 0.0 0.0 0.00 0.00 0.00 77 1008.7
20260505224615 35 0 0.0 0.0 0.00 0.00 0.00 76 1008.9
20260505224115 35 0 0.0 0.0 0.00 0.00 0.00 76 1008.7
20260505223614 35 0 0.0 0.0 0.00 0.00 0.00 76 1008.7
20260505223114 36 0 0.0 0.0 0.00 0.00 0.00 75 1008.8
20260505222614 36 0 0.0 0.0 0.00 0.00 0.00 75 1008.9
20260505222113 37 0 0.0 0.0 0.00 0.00 0.00 75 1008.8
20260505221613 37 0 0.0 0.0 0.00 0.00 0.00 76 1008.9
20260505221113 37 0 0.0 0.0 0.00 0.00 0.00 75 1008.8
20260505220612 37 0 0.0 0.0 0.00 0.00 0.00 75 1008.9
20260505220112 37 0 0.0 0.0 0.00 0.00 0.00 75 1008.9
20260505215612 37 0 0.0 0.0 0.00 0.00 0.00 75 1008.7
20260505215112 37 0 0.0 0.0 0.00 0.00 0.00 75 1008.7
20260505214611 37 0 0.0 0.0 0.00 0.00 0.00 75 1008.7
20260505214112 37 0 0.0 0.0 0.00 0.00 0.00 75 1008.7
20260505213611 37 0 0.0 0.0 0.00 0.00 0.00 74 1008.6
20260505213110 37 0 0.0 0.0 0.00 0.00 0.00 74 1008.5
20260505212610 38 0 0.0 0.0 0.00 0.00 0.00 73 1008.5
20260505212110 38 0 0.0 0.0 0.00 0.00 0.00 73 1008.5
20260505211610 38 0 0.0 0.0 0.00 0.00 0.00 73 1008.4
20260505211109 39 0 0.0 0.0 0.00 0.00 0.00 73 1008.4
20260505210609 39 0 0.0 0.0 0.00 0.00 0.00 72 1008.4
20260505210109 39 0 0.0 0.0 0.00 0.00 0.00 72 1008.2
20260505205608 39 0 0.0 0.0 0.00 0.00 0.00 72 1008.2
20260505205108 40 0 0.0 0.0 0.00 0.00 0.00 72 1008.1
20260505204608 40 0 0.0 0.0 0.00 0.00 0.00 72 1008.2
20260505204108 40 0 0.0 0.0 0.00 0.00 0.00 71 1008.1
20260505203607 40 0 0.0 0.0 0.00 0.00 0.00 71 1008.0
20260505203107 40 0 0.0 0.0 0.00 0.00 0.00 71 1008.0
20260505202607 41 0 0.0 0.0 0.00 0.00 0.00 71 1008.0
20260505202106 41 0 0.0 0.0 0.00 0.00 0.00 71 1008.1
20260505201606 41 0 0.0 0.0 0.00 0.00 0.00 70 1008.1
20260505201106 41 0 0.0 0.0 0.00 0.00 0.00 70 1008.1
20260505200606 41 0 0.0 0.0 0.00 0.00 0.00 70 1008.1
20260505200105 41 0 0.0 0.0 0.00 0.00 0.00 69 1008.0
20260505195605 41 0 0.0 0.0 0.00 0.00 0.00 69 1007.9
20260505195105 41 0 0.0 0.0 0.00 0.00 0.00 69 1007.9
20260505194604 41 0 0.0 0.0 0.00 0.00 0.00 68 1007.8
20260505194104 41 0 0.0 0.0 0.00 0.00 0.00 68 1007.8
20260505193604 42 0 0.0 0.0 0.00 0.00 0.00 67 1007.7
20260505193103 42 0 0.0 0.0 0.00 0.00 0.00 67 1007.7
20260505192603 42 0 0.0 0.0 0.00 0.00 0.00 66 1007.8
20260505192103 42 0 0.0 0.0 0.00 0.00 0.00 65 1007.8
20260505191603 42 0 0.0 0.0 0.00 0.00 0.00 65 1007.8
20260505191102 42 0 0.0 0.0 0.00 0.00 0.00 64 1007.7
20260505190602 43 0 0.0 0.0 0.00 0.00 0.00 63 1007.6
20260505185601 43 0 0.0 0.0 0.00 0.00 0.00 63 1007.5
20260505185101 43 0 0.0 0.0 0.00 0.00 0.00 62 1007.5
20260505184601 43 0 0.0 0.0 0.00 0.00 0.00 62 1007.4
20260505184101 43 0 0.0 0.0 0.00 0.00 0.00 62 1007.7
20260505183600 44 0 0.0 0.0 0.00 0.00 0.00 61 1007.6
20260505183100 44 0 0.0 0.0 0.00 0.00 0.00 61 1007.3
20260505182600 44 0 0.0 0.0 0.00 0.00 0.00 60 1007.3
20260505182059 44 0 0.0 0.0 0.00 0.00 0.00 60 1007.3
20260505181559 44 0 0.0 0.0 0.00 0.00 0.00 60 1007.4
20260505181059 44 0 0.0 0.0 0.00 0.00 0.00 60 1007.3
20260505180559 45 0 0.0 0.0 0.00 0.00 0.00 60 1007.3
20260505180058 45 0 0.0 0.0 0.00 0.00 0.00 59 1007.2
20260505175558 45 0 0.0 0.0 0.00 0.00 0.00 59 1007.3
20260505175058 45 0 0.0 0.0 0.00 0.00 0.00 58 1007.2
20260505174557 45 0 0.0 0.0 0.00 0.00 0.00 58 1007.1
20260505174057 45 0 0.0 0.0 0.00 0.00 0.00 58 1007.2
20260505173557 46 0 0.0 0.0 0.00 0.00 0.00 57 1007.3
20260505173056 46 0 0.0 0.0 0.00 0.00 0.00 57 1007.1
20260505172556 46 0 0.0 0.0 0.00 0.00 0.00 57 1006.9
20260505172056 46 0 0.0 0.0 0.00 0.00 0.00 57 1007.1
20260505171556 46 0 0.0 0.0 0.00 0.00 0.00 57 1006.9
20260505171055 47 0 0.0 0.0 0.00 0.00 0.00 57 1006.9
20260505170555 47 0 0.0 0.0 0.00 0.00 0.00 56 1006.9
20260505170055 47 0 0.0 0.0 0.00 0.00 0.00 56 1007.0
20260505165554 47 0 0.0 0.0 0.00 0.00 0.00 57 1006.8
20260505165054 47 0 0.0 0.0 0.00 0.00 0.00 57 1006.8
20260505164554 48 0 0.0 0.0 0.00 0.00 0.00 57 1006.7
20260505164054 48 0 0.0 0.0 0.00 0.00 0.00 56 1007.0
20260505163553 48 0 0.0 0.0 0.00 0.00 0.00 56 1006.9
20260505163053 48 0 0.0 0.0 0.00 0.00 0.00 56 1006.8
20260505162553 48 0 0.0 0.0 0.00 0.00 0.00 57 1006.8
20260505162052 48 0 0.0 0.0 0.00 0.00 0.00 57 1006.8
20260505161552 48 0 0.0 0.0 0.00 0.00 0.00 57 1006.8
20260505161052 48 0 0.0 0.0 0.00 0.00 0.00 57 1006.7
20260505160552 48 0 0.0 0.0 0.00 0.00 0.00 57 1006.8
20260505153050 49 0 0.0 0.0 0.00 0.00 0.00 58 1006.8
20260505152549 49 0 0.0 0.0 0.00 0.00 0.00 58 1006.7
20260505152049 49 0 0.0 0.0 0.00 0.00 0.00 58 1006.7
20260505151549 50 0 0.0 0.0 0.00 0.00 0.00 58 1006.7
20260505151048 50 0 0.0 0.0 0.00 0.00 0.00 58 1006.6
20260505150548 50 0 0.0 0.0 0.00 0.00 0.00 58 1006.6
20260505140545 50 0 0.0 0.0 0.00 0.00 0.00 59 1006.3
20260505125040 52 0 0.0 0.0 0.00 0.00 0.00 58 1005.8
20260505124540 53 0 0.0 0.0 0.00 0.00 0.00 58 1005.7
20260505124040 53 0 0.0 0.0 0.00 0.00 0.00 58 1005.7
20260505123539 53 0 0.0 0.0 0.00 0.00 0.00 58 1005.7
20260505123039 54 0 0.0 0.0 0.00 0.00 0.00 57 1005.7
20260505122539 54 0 0.0 0.0 0.00 0.00 0.00 57 1005.8
20260505122038 55 0 0.0 0.0 0.00 0.00 0.00 57 1005.7
20260505121538 54 0 0.0 0.0 0.00 0.00 0.00 58 1005.7
20260505121038 54 0 0.0 0.0 0.00 0.00 0.00 58 1005.7
20260505120538 54 0 0.0 0.0 0.00 0.00 0.00 58 1005.7
20260505120037 54 0 0.0 0.0 0.00 0.00 0.00 58 1005.6
20260505115537 54 0 0.0 0.0 0.00 0.00 0.00 58 1005.6
20260505115037 54 0 0.0 0.0 0.00 0.00 0.00 57 1005.6
20260505114536 55 0 0.0 0.0 0.00 0.00 0.00 56 1005.3
20260505114036 56 0 0.0 0.0 0.00 0.00 0.00 56 1005.4
20260505113536 56 0 0.0 0.0 0.00 0.00 0.00 55 1005.2